• Join FlightAware (Why Join?)
  • Login
  • US Flag 
05:16AM EDT


 

Airport Tracker/Info


-or-


 

Live Flight TrackerFlight Track Log ✈ CTL13 ✈ 29-Aug-2013 ✈ KEYE - KMDW

Flight Track Log - Related Links

Times and Time Zones

All times are in EDT time to prevent confusion due to time zone crossing. See the CTL13 flight status page for this flight to view local times or setup timezone preferences in your user account.

Time Position Orientation Groundspeed Altitude Reporting Facility
EDT Latitude Longitude Course Direction KTS MPH feet Rate Location/Type
07:54PM 39.9000 -86.3500 328° Northwest 138 159 2,900  Level Indianapolis TRACON
07:55PM 39.9333 -86.3833 323° Northwest 137 158 3,700 780 Climbing Indianapolis TRACON
07:56PM 39.9667 -86.4167 323° Northwest 139 160 4,500 720 Climbing Indianapolis TRACON
07:57PM 40.0000 -86.4500 323° Northwest 139 160 5,200 660 Climbing Indianapolis TRACON
07:58PM 40.0333 -86.4833 323° Northwest 142 163 5,900 360 Climbing Indianapolis TRACON
07:59PM 40.0653 -86.5242 316° Northwest 146 168 6,100 120 Climbing Indianapolis Center
08:00PM 40.1033 -86.5644 321° Northwest 161 185 6,200  Climbing Indianapolis Center
08:01PM 40.1397 -86.6042 320° Northwest 168 193 6,100  Descending Indianapolis Center
08:02PM 40.1825 -86.6533 319° Northwest 170 196 6,200  Climbing Indianapolis Center
08:03PM 40.2189 -86.6928 320° Northwest 170 196 6,200  Level Indianapolis Center
08:04PM 40.2550 -86.7306 321° Northwest 169 194 6,200 -60 Level Indianapolis Center
08:05PM 40.2958 -86.7594 332° Northwest 168 193 6,100 -60 Descending Indianapolis Center
08:06PM 40.3386 -86.7872 334° Northwest 169 194 6,100  Level Indianapolis Center
08:07PM 40.3800 -86.8142 334° Northwest 168 193 6,100  Level Indianapolis Center
08:08PM 40.4303 -86.8472 333° Northwest 168 193 6,100  Level Indianapolis Center
08:09PM 40.4719 -86.8756 333° Northwest 169 194 6,200  Climbing Indianapolis Center
08:10PM 40.5153 -86.9017 335° Northwest 170 196 6,200  Level Indianapolis Center
08:11PM 40.5569 -86.9294 333° Northwest 169 194 6,200  Level Indianapolis Center
08:12PM 40.6058 -86.9656 331° Northwest 168 193 6,200 -60 Level Chicago Center
08:14PM 40.6572 -86.9967 335° Northwest 169 194 6,100 -60 Descending Chicago Center
08:15PM 40.6992 -87.0239 334° Northwest 169 194 6,100  Level Chicago Center
08:16PM 40.7439 -87.0517 335° Northwest 170 196 6,100  Level Chicago Center
08:17PM 40.7844 -87.0803 332° Northwest 168 193 6,100  Level Chicago Center
08:18PM 40.8358 -87.1097 337° Northwest 169 194 6,100  Level Chicago Center
08:19PM 40.8769 -87.1364 334° Northwest 167 192 6,100  Level Chicago Center
08:20PM 40.9156 -87.1658 330° Northwest 164 189 6,100  Level Chicago Center
08:21PM 40.9561 -87.1942 332° Northwest 165 190 6,100 -240 Level Chicago Center
08:22PM 40.9975 -87.2225 333° Northwest 171 197 5,700 -480 Descending Chicago Center
08:23PM 41.0500 -87.2603 332° Northwest 179 206 5,100 -600 Descending Chicago Center
08:24PM 41.0975 -87.2928 333° Northwest 188 216 4,500 -540 Descending Chicago Center
08:25PM 41.1447 -87.3247 333° Northwest 191 220 4,100 -240 Descending Chicago Center
08:26PM 41.1881 -87.3533 334° Northwest 185 213 4,100  Level Chicago Center
08:27PM 41.2292 -87.3822 332° Northwest 177 204 4,100  Level Chicago Center
08:28PM 41.2794 -87.4167 333° Northwest 173 199 4,200  Climbing Chicago Center
08:29PM 41.3214 -87.4450 333° Northwest 171 197 4,100 -60 Descending Chicago Center
08:30PM 41.3642 -87.4756 332° Northwest 174 200 4,100  Level Chicago Center
08:31PM 41.3978 -87.5189 316° Northwest 173 199 4,100  Level Chicago Center
08:32PM 41.4233 -87.5714 303° West 172 198 4,100 -180 Level Chicago Center
08:33PM 41.4583 -87.6361 306° West 177 204 3,800 -360 Descending Chicago Center
08:34PM 41.4872 -87.6917 305° West 181 208 3,400 -360 Descending Chicago Center
08:35PM 41.5169 -87.7489 305° West 185 213 3,100 -180 Descending Chicago Center
08:36PM 41.5456 -87.8014 306° West 183 211 3,100 -60 Level Chicago Center
08:37PM 41.5592 -87.8761 284° West 181 208 3,000  Descending Chicago Center
08:39PM 41.5792 -87.9317 296° West 178 205 3,100  Climbing Chicago Center
08:40PM 41.6175 -87.9522 338° Northwest 176 203 3,000 -60 Descending Chicago Center
08:41PM 41.6581 -87.9150 34° Northeast 180 207 3,000  Level Chicago Center
08:42PM 41.6919 -87.8708 44° Northeast 175 201 3,000 -420 Level Chicago Center
08:43PM 41.7328 -87.8222 42° Northeast 170 196 2,200 -780 Descending Chicago Center
08:44PM 41.7589 -87.7906 42° Northeast 140 161 1,400 -540 Descending Chicago Center
08:45PM 41.7778 -87.7667 43° Northeast 125 144 1,100 -300 Descending Chicago Center
08:47PM 41.7833 -87.7500 North  Level FlightAware Approximate